sensor_id;sensor_type;location;lat;lon;timestamp;P1;durP1;ratioP1;P2;durP2;ratioP2
63379;SDS011;53160;55.014;73.156;2023-05-07T00:04:55;51.40;;;40.20;;
63379;SDS011;53160;55.014;73.156;2023-05-07T00:07:21;43.80;;;36.20;;
63379;SDS011;53160;55.014;73.156;2023-05-07T00:09:47;46.00;;;36.75;;
63379;SDS011;53160;55.014;73.156;2023-05-07T00:12:15;18.00;;;17.00;;
63379;SDS011;53160;55.014;73.156;2023-05-07T00:15:01;52.40;;;38.00;;
63379;SDS011;53160;55.014;73.156;2023-05-07T00:17:27;35.40;;;31.00;;
63379;SDS011;53160;55.014;73.156;2023-05-07T00:19:53;28.60;;;28.60;;
63379;SDS011;53160;55.014;73.156;2023-05-07T00:22:19;31.00;;;27.60;;
63379;SDS011;53160;55.014;73.156;2023-05-07T00:24:45;38.75;;;31.75;;
63379;SDS011;53160;55.014;73.156;2023-05-07T00:27:11;35.40;;;32.20;;
63379;SDS011;53160;55.014;73.156;2023-05-07T00:29:55;47.60;;;36.40;;
63379;SDS011;53160;55.014;73.156;2023-05-07T00:32:39;39.80;;;36.00;;
63379;SDS011;53160;55.014;73.156;2023-05-07T00:35:06;39.60;;;34.20;;
63379;SDS011;53160;55.014;73.156;2023-05-07T00:37:32;38.80;;;33.20;;
63379;SDS011;53160;55.014;73.156;2023-05-07T00:43:01;35.80;;;32.20;;
63379;SDS011;53160;55.014;73.156;2023-05-07T00:45:48;28.80;;;24.40;;
63379;SDS011;53160;55.014;73.156;2023-05-07T00:48:15;34.20;;;31.60;;
63379;SDS011;53160;55.014;73.156;2023-05-07T00:50:41;34.20;;;26.60;;
63379;SDS011;53160;55.014;73.156;2023-05-07T00:53:07;40.40;;;32.80;;
63379;SDS011;53160;55.014;73.156;2023-05-07T00:58:19;38.80;;;33.00;;
63379;SDS011;53160;55.014;73.156;2023-05-07T01:00:45;37.60;;;31.40;;
63379;SDS011;53160;55.014;73.156;2023-05-07T01:03:11;33.60;;;31.60;;
63379;SDS011;53160;55.014;73.156;2023-05-07T01:05:37;27.00;;;23.40;;
63379;SDS011;53160;55.014;73.156;2023-05-07T01:08:04;31.40;;;28.20;;
63379;SDS011;53160;55.014;73.156;2023-05-07T01:10:30;29.80;;;28.20;;
63379;SDS011;53160;55.014;73.156;2023-05-07T01:13:01;35.40;;;30.20;;
63379;SDS011;53160;55.014;73.156;2023-05-07T01:15:27;28.80;;;26.80;;
63379;SDS011;53160;55.014;73.156;2023-05-07T01:17:53;27.60;;;25.60;;
63379;SDS011;53160;55.014;73.156;2023-05-07T01:20:27;33.00;;;29.80;;
63379;SDS011;53160;55.014;73.156;2023-05-07T01:22:55;32.00;;;30.20;;
63379;SDS011;53160;55.014;73.156;2023-05-07T01:25:22;30.60;;;28.20;;
63379;SDS011;53160;55.014;73.156;2023-05-07T01:27:52;25.60;;;21.60;;
63379;SDS011;53160;55.014;73.156;2023-05-07T01:30:21;29.80;;;26.80;;
63379;SDS011;53160;55.014;73.156;2023-05-07T01:35:37;32.20;;;26.80;;
63379;SDS011;53160;55.014;73.156;2023-05-07T01:38:04;14.60;;;12.80;;
63379;SDS011;53160;55.014;73.156;2023-05-07T01:40:31;23.40;;;22.60;;
63379;SDS011;53160;55.014;73.156;2023-05-07T01:42:58;22.40;;;20.20;;
63379;SDS011;53160;55.014;73.156;2023-05-07T01:45:42;22.00;;;20.00;;
63379;SDS011;53160;55.014;73.156;2023-05-07T01:48:10;22.20;;;21.00;;
63379;SDS011;53160;55.014;73.156;2023-05-07T01:50:37;21.60;;;21.40;;
63379;SDS011;53160;55.014;73.156;2023-05-07T01:53:21;21.20;;;20.40;;
63379;SDS011;53160;55.014;73.156;2023-05-07T01:55:47;25.00;;;23.25;;
63379;SDS011;53160;55.014;73.156;2023-05-07T01:58:14;23.80;;;20.40;;
63379;SDS011;53160;55.014;73.156;2023-05-07T02:00:40;21.60;;;21.00;;
63379;SDS011;53160;55.014;73.156;2023-05-07T02:03:07;20.40;;;19.00;;
63379;SDS011;53160;55.014;73.156;2023-05-07T02:05:43;20.00;;;17.60;;
63379;SDS011;53160;55.014;73.156;2023-05-07T02:08:20;13.40;;;12.60;;
63379;SDS011;53160;55.014;73.156;2023-05-07T02:10:46;16.60;;;16.60;;
63379;SDS011;53160;55.014;73.156;2023-05-07T02:13:12;19.40;;;16.20;;
63379;SDS011;53160;55.014;73.156;2023-05-07T02:15:42;19.20;;;17.00;;
63379;SDS011;53160;55.014;73.156;2023-05-07T02:18:08;19.00;;;14.80;;
63379;SDS011;53160;55.014;73.156;2023-05-07T02:20:35;15.60;;;14.80;;
63379;SDS011;53160;55.014;73.156;2023-05-07T02:23:20;15.00;;;13.60;;
63379;SDS011;53160;55.014;73.156;2023-05-07T02:31:15;17.20;;;14.80;;
63379;SDS011;53160;55.014;73.156;2023-05-07T02:36:25;16.60;;;15.60;;
63379;SDS011;53160;55.014;73.156;2023-05-07T02:38:58;19.00;;;13.60;;
63379;SDS011;53160;55.014;73.156;2023-05-07T02:41:52;15.20;;;14.80;;
63379;SDS011;53160;55.014;73.156;2023-05-07T02:44:36;13.20;;;13.00;;
63379;SDS011;53160;55.014;73.156;2023-05-07T02:47:20;13.40;;;11.80;;
63379;SDS011;53160;55.014;73.156;2023-05-07T02:49:47;14.80;;;12.40;;
63379;SDS011;53160;55.014;73.156;2023-05-07T02:52:13;14.40;;;12.40;;
63379;SDS011;53160;55.014;73.156;2023-05-07T02:54:39;12.40;;;10.40;;
63379;SDS011;53160;55.014;73.156;2023-05-07T02:57:23;15.60;;;13.20;;
63379;SDS011;53160;55.014;73.156;2023-05-07T02:59:49;13.20;;;9.40;;
63379;SDS011;53160;55.014;73.156;2023-05-07T03:02:16;11.80;;;10.20;;
63379;SDS011;53160;55.014;73.156;2023-05-07T03:04:45;11.60;;;10.80;;
63379;SDS011;53160;55.014;73.156;2023-05-07T03:07:30;14.20;;;11.20;;
63379;SDS011;53160;55.014;73.156;2023-05-07T03:10:04;12.40;;;11.40;;
63379;SDS011;53160;55.014;73.156;2023-05-07T03:12:49;24.40;;;18.20;;
63379;SDS011;53160;55.014;73.156;2023-05-07T03:15:16;8.80;;;7.00;;
63379;SDS011;53160;55.014;73.156;2023-05-07T03:17:42;11.00;;;10.00;;
63379;SDS011;53160;55.014;73.156;2023-05-07T03:22:53;9.50;;;8.25;;
63379;SDS011;53160;55.014;73.156;2023-05-07T03:25:19;6.00;;;6.00;;
63379;SDS011;53160;55.014;73.156;2023-05-07T03:27:45;6.75;;;6.75;;
63379;SDS011;53160;55.014;73.156;2023-05-07T03:30:12;7.75;;;7.00;;
63379;SDS011;53160;55.014;73.156;2023-05-07T03:32:38;9.25;;;7.50;;
63379;SDS011;53160;55.014;73.156;2023-05-07T03:35:23;8.00;;;7.50;;
63379;SDS011;53160;55.014;73.156;2023-05-07T03:40:35;9.00;;;7.00;;
63379;SDS011;53160;55.014;73.156;2023-05-07T03:43:03;5.00;;;3.50;;
63379;SDS011;53160;55.014;73.156;2023-05-07T03:45:31;7.00;;;6.75;;
63379;SDS011;53160;55.014;73.156;2023-05-07T03:48:15;6.25;;;6.25;;
63379;SDS011;53160;55.014;73.156;2023-05-07T03:50:42;8.25;;;6.50;;
63379;SDS011;53160;55.014;73.156;2023-05-07T03:53:08;6.50;;;6.50;;
63379;SDS011;53160;55.014;73.156;2023-05-07T03:58:23;6.00;;;6.00;;
63379;SDS011;53160;55.014;73.156;2023-05-07T04:03:53;6.00;;;6.00;;
63379;SDS011;53160;55.014;73.156;2023-05-07T04:06:19;5.50;;;4.25;;
63379;SDS011;53160;55.014;73.156;2023-05-07T04:08:48;8.00;;;8.00;;
63379;SDS011;53160;55.014;73.156;2023-05-07T04:11:14;8.00;;;7.67;;
63379;SDS011;53160;55.014;73.156;2023-05-07T04:13:40;4.50;;;4.00;;
63379;SDS011;53160;55.014;73.156;2023-05-07T04:16:07;6.00;;;6.00;;
63379;SDS011;53160;55.014;73.156;2023-05-07T04:18:35;5.75;;;4.50;;
63379;SDS011;53160;55.014;73.156;2023-05-07T04:21:20;1.25;;;1.00;;
63379;SDS011;53160;55.014;73.156;2023-05-07T04:23:48;5.50;;;5.50;;
63379;SDS011;53160;55.014;73.156;2023-05-07T04:26:18;6.00;;;5.00;;
63379;SDS011;53160;55.014;73.156;2023-05-07T04:28:45;6.75;;;5.00;;
63379;SDS011;53160;55.014;73.156;2023-05-07T04:31:11;5.50;;;5.00;;
63379;SDS011;53160;55.014;73.156;2023-05-07T04:33:39;4.00;;;4.00;;
63379;SDS011;53160;55.014;73.156;2023-05-07T04:36:09;6.50;;;5.00;;
63379;SDS011;53160;55.014;73.156;2023-05-07T04:38:42;2.75;;;2.50;;
63379;SDS011;53160;55.014;73.156;2023-05-07T04:41:08;4.25;;;4.00;;
63379;SDS011;53160;55.014;73.156;2023-05-07T04:43:39;6.25;;;6.00;;
63379;SDS011;53160;55.014;73.156;2023-05-07T04:46:05;5.50;;;5.25;;
63379;SDS011;53160;55.014;73.156;2023-05-07T04:54:01;4.25;;;3.00;;
63379;SDS011;53160;55.014;73.156;2023-05-07T04:56:29;5.00;;;5.00;;
63379;SDS011;53160;55.014;73.156;2023-05-07T05:01:41;2.25;;;2.25;;
63379;SDS011;53160;55.014;73.156;2023-05-07T05:04:07;3.75;;;3.75;;
63379;SDS011;53160;55.014;73.156;2023-05-07T05:09:36;6.00;;;5.50;;
63379;SDS011;53160;55.014;73.156;2023-05-07T05:12:20;5.75;;;5.00;;
63379;SDS011;53160;55.014;73.156;2023-05-07T05:14:46;4.75;;;4.75;;
63379;SDS011;53160;55.014;73.156;2023-05-07T05:17:14;4.75;;;4.75;;
63379;SDS011;53160;55.014;73.156;2023-05-07T05:19:40;4.50;;;4.00;;
63379;SDS011;53160;55.014;73.156;2023-05-07T05:22:06;4.00;;;4.00;;
63379;SDS011;53160;55.014;73.156;2023-05-07T05:24:32;2.00;;;1.50;;
63379;SDS011;53160;55.014;73.156;2023-05-07T05:27:18;6.25;;;5.75;;
63379;SDS011;53160;55.014;73.156;2023-05-07T05:30:03;3.50;;;2.75;;
63379;SDS011;53160;55.014;73.156;2023-05-07T05:32:30;4.00;;;4.00;;
63379;SDS011;53160;55.014;73.156;2023-05-07T05:34:57;5.00;;;5.00;;
63379;SDS011;53160;55.014;73.156;2023-05-07T05:37:23;4.25;;;4.25;;
63379;SDS011;53160;55.014;73.156;2023-05-07T05:39:50;4.25;;;4.25;;
63379;SDS011;53160;55.014;73.156;2023-05-07T05:42:35;7.20;;;5.00;;
63379;SDS011;53160;55.014;73.156;2023-05-07T05:45:01;5.25;;;5.25;;
63379;SDS011;53160;55.014;73.156;2023-05-07T05:47:29;5.00;;;4.50;;
63379;SDS011;53160;55.014;73.156;2023-05-07T05:50:13;5.25;;;4.50;;
63379;SDS011;53160;55.014;73.156;2023-05-07T05:52:40;4.75;;;4.00;;
63379;SDS011;53160;55.014;73.156;2023-05-07T05:57:51;5.00;;;4.75;;
63379;SDS011;53160;55.014;73.156;2023-05-07T06:00:18;5.50;;;5.00;;
63379;SDS011;53160;55.014;73.156;2023-05-07T06:02:55;4.00;;;4.00;;
63379;SDS011;53160;55.014;73.156;2023-05-07T06:05:24;4.25;;;4.25;;
63379;SDS011;53160;55.014;73.156;2023-05-07T06:07:53;2.75;;;2.75;;
63379;SDS011;53160;55.014;73.156;2023-05-07T06:10:19;5.50;;;5.50;;
63379;SDS011;53160;55.014;73.156;2023-05-07T06:12:48;5.00;;;4.40;;
63379;SDS011;53160;55.014;73.156;2023-05-07T06:15:15;6.25;;;4.00;;
63379;SDS011;53160;55.014;73.156;2023-05-07T06:17:42;0.25;;;0.25;;
63379;SDS011;53160;55.014;73.156;2023-05-07T06:20:27;5.50;;;4.75;;
63379;SDS011;53160;55.014;73.156;2023-05-07T06:22:53;5.25;;;4.50;;
63379;SDS011;53160;55.014;73.156;2023-05-07T06:25:19;4.75;;;4.75;;
63379;SDS011;53160;55.014;73.156;2023-05-07T06:28:03;2.25;;;2.25;;
63379;SDS011;53160;55.014;73.156;2023-05-07T06:30:32;4.50;;;4.00;;
63379;SDS011;53160;55.014;73.156;2023-05-07T06:32:58;4.80;;;3.80;;
63379;SDS011;53160;55.014;73.156;2023-05-07T06:35:42;4.75;;;4.75;;
63379;SDS011;53160;55.014;73.156;2023-05-07T06:38:08;5.00;;;5.00;;
63379;SDS011;53160;55.014;73.156;2023-05-07T06:40:53;3.00;;;2.00;;
63379;SDS011;53160;55.014;73.156;2023-05-07T06:43:21;5.00;;;5.00;;
63379;SDS011;53160;55.014;73.156;2023-05-07T06:45:54;4.00;;;4.00;;
63379;SDS011;53160;55.014;73.156;2023-05-07T06:54:26;4.75;;;4.75;;
63379;SDS011;53160;55.014;73.156;2023-05-07T07:02:49;6.00;;;6.00;;
63379;SDS011;53160;55.014;73.156;2023-05-07T07:05:18;2.75;;;2.75;;
63379;SDS011;53160;55.014;73.156;2023-05-07T07:07:45;4.75;;;3.75;;
63379;SDS011;53160;55.014;73.156;2023-05-07T07:10:19;0.25;;;0.25;;
63379;SDS011;53160;55.014;73.156;2023-05-07T07:12:51;3.75;;;3.75;;
63379;SDS011;53160;55.014;73.156;2023-05-07T07:15:19;4.75;;;4.00;;
63379;SDS011;53160;55.014;73.156;2023-05-07T07:17:47;2.00;;;1.75;;
63379;SDS011;53160;55.014;73.156;2023-05-07T07:20:14;3.00;;;2.25;;
63379;SDS011;53160;55.014;73.156;2023-05-07T07:22:43;5.50;;;5.25;;
63379;SDS011;53160;55.014;73.156;2023-05-07T07:25:09;3.25;;;3.25;;
63379;SDS011;53160;55.014;73.156;2023-05-07T07:30:23;5.50;;;3.25;;
63379;SDS011;53160;55.014;73.156;2023-05-07T07:32:49;2.00;;;2.00;;
63379;SDS011;53160;55.014;73.156;2023-05-07T07:35:15;2.25;;;2.25;;
63379;SDS011;53160;55.014;73.156;2023-05-07T07:38:02;4.50;;;3.50;;
63379;SDS011;53160;55.014;73.156;2023-05-07T07:40:29;3.75;;;3.75;;
63379;SDS011;53160;55.014;73.156;2023-05-07T07:42:58;4.00;;;3.25;;
63379;SDS011;53160;55.014;73.156;2023-05-07T07:45:27;3.00;;;3.00;;
63379;SDS011;53160;55.014;73.156;2023-05-07T07:47:53;5.50;;;5.50;;
63379;SDS011;53160;55.014;73.156;2023-05-07T07:50:20;3.75;;;3.50;;
63379;SDS011;53160;55.014;73.156;2023-05-07T07:52:48;2.25;;;2.00;;
63379;SDS011;53160;55.014;73.156;2023-05-07T07:55:19;4.00;;;4.00;;
63379;SDS011;53160;55.014;73.156;2023-05-07T07:57:50;3.75;;;3.75;;
63379;SDS011;53160;55.014;73.156;2023-05-07T08:00:16;3.25;;;3.25;;
63379;SDS011;53160;55.014;73.156;2023-05-07T08:02:42;4.33;;;3.67;;
63379;SDS011;53160;55.014;73.156;2023-05-07T08:05:11;4.00;;;3.25;;
63379;SDS011;53160;55.014;73.156;2023-05-07T08:07:55;2.25;;;2.25;;
63379;SDS011;53160;55.014;73.156;2023-05-07T08:10:40;2.00;;;1.00;;
63379;SDS011;53160;55.014;73.156;2023-05-07T08:13:17;4.50;;;3.50;;
63379;SDS011;53160;55.014;73.156;2023-05-07T08:15:43;3.40;;;2.40;;
63379;SDS011;53160;55.014;73.156;2023-05-07T08:18:10;2.00;;;2.00;;
63379;SDS011;53160;55.014;73.156;2023-05-07T08:20:37;4.00;;;4.00;;
63379;SDS011;53160;55.014;73.156;2023-05-07T08:23:07;3.75;;;3.75;;
63379;SDS011;53160;55.014;73.156;2023-05-07T08:28:55;3.20;;;2.80;;
63379;SDS011;53160;55.014;73.156;2023-05-07T08:31:22;5.60;;;4.60;;
63379;SDS011;53160;55.014;73.156;2023-05-07T08:33:48;2.60;;;2.00;;
63379;SDS011;53160;55.014;73.156;2023-05-07T08:36:14;3.40;;;3.40;;
63379;SDS011;53160;55.014;73.156;2023-05-07T08:38:40;4.80;;;4.00;;
63379;SDS011;53160;55.014;73.156;2023-05-07T08:41:09;3.40;;;3.40;;
63379;SDS011;53160;55.014;73.156;2023-05-07T08:43:35;3.00;;;3.00;;
63379;SDS011;53160;55.014;73.156;2023-05-07T08:46:02;3.40;;;3.40;;
63379;SDS011;53160;55.014;73.156;2023-05-07T08:48:31;3.60;;;3.60;;
63379;SDS011;53160;55.014;73.156;2023-05-07T08:51:12;2.00;;;2.00;;
63379;SDS011;53160;55.014;73.156;2023-05-07T08:53:40;5.00;;;5.00;;
63379;SDS011;53160;55.014;73.156;2023-05-07T08:56:10;5.60;;;3.80;;
63379;SDS011;53160;55.014;73.156;2023-05-07T08:58:36;2.80;;;2.80;;
63379;SDS011;53160;55.014;73.156;2023-05-07T09:01:13;2.20;;;2.00;;
63379;SDS011;53160;55.014;73.156;2023-05-07T09:04:02;3.00;;;2.80;;
63379;SDS011;53160;55.014;73.156;2023-05-07T09:06:29;3.20;;;2.80;;
63379;SDS011;53160;55.014;73.156;2023-05-07T09:08:56;0.60;;;0.40;;
63379;SDS011;53160;55.014;73.156;2023-05-07T09:11:27;2.60;;;2.60;;
63379;SDS011;53160;55.014;73.156;2023-05-07T09:13:59;2.20;;;2.20;;
63379;SDS011;53160;55.014;73.156;2023-05-07T09:19:37;3.00;;;2.60;;
63379;SDS011;53160;55.014;73.156;2023-05-07T09:22:06;3.00;;;2.80;;
63379;SDS011;53160;55.014;73.156;2023-05-07T09:24:48;3.00;;;3.00;;
63379;SDS011;53160;55.014;73.156;2023-05-07T09:27:15;4.60;;;4.40;;
63379;SDS011;53160;55.014;73.156;2023-05-07T09:29:44;3.00;;;3.00;;
63379;SDS011;53160;55.014;73.156;2023-05-07T09:32:12;2.80;;;2.80;;
63379;SDS011;53160;55.014;73.156;2023-05-07T09:40:30;3.00;;;3.00;;
63379;SDS011;53160;55.014;73.156;2023-05-07T09:43:11;4.80;;;3.40;;
63379;SDS011;53160;55.014;73.156;2023-05-07T09:48:27;4.00;;;2.20;;
63379;SDS011;53160;55.014;73.156;2023-05-07T09:50:55;2.80;;;1.40;;
63379;SDS011;53160;55.014;73.156;2023-05-07T09:53:27;5.00;;;4.20;;
63379;SDS011;53160;55.014;73.156;2023-05-07T09:55:55;1.00;;;0.00;;
63379;SDS011;53160;55.014;73.156;2023-05-07T09:58:22;2.20;;;2.20;;
63379;SDS011;53160;55.014;73.156;2023-05-07T10:00:49;5.20;;;3.60;;
63379;SDS011;53160;55.014;73.156;2023-05-07T10:03:16;4.60;;;3.20;;
63379;SDS011;53160;55.014;73.156;2023-05-07T10:06:01;4.20;;;3.60;;
63379;SDS011;53160;55.014;73.156;2023-05-07T10:08:29;4.80;;;3.00;;
63379;SDS011;53160;55.014;73.156;2023-05-07T10:11:14;16.40;;;14.20;;
63379;SDS011;53160;55.014;73.156;2023-05-07T10:16:31;4.00;;;4.00;;
63379;SDS011;53160;55.014;73.156;2023-05-07T10:18:58;4.60;;;4.00;;
63379;SDS011;53160;55.014;73.156;2023-05-07T10:21:26;3.20;;;3.20;;
63379;SDS011;53160;55.014;73.156;2023-05-07T10:23:59;3.60;;;3.60;;
63379;SDS011;53160;55.014;73.156;2023-05-07T10:26:30;4.60;;;3.80;;
63379;SDS011;53160;55.014;73.156;2023-05-07T10:29:02;3.60;;;3.00;;
63379;SDS011;53160;55.014;73.156;2023-05-07T10:39:46;5.00;;;4.40;;
63379;SDS011;53160;55.014;73.156;2023-05-07T10:42:13;7.00;;;6.20;;
63379;SDS011;53160;55.014;73.156;2023-05-07T10:53:38;5.80;;;5.00;;
63379;SDS011;53160;55.014;73.156;2023-05-07T10:59:11;5.60;;;4.80;;
63379;SDS011;53160;55.014;73.156;2023-05-07T11:01:52;5.00;;;5.00;;
63379;SDS011;53160;55.014;73.156;2023-05-07T11:04:24;5.00;;;5.00;;
63379;SDS011;53160;55.014;73.156;2023-05-07T11:07:24;7.00;;;5.40;;
63379;SDS011;53160;55.014;73.156;2023-05-07T11:12:59;7.20;;;6.40;;
63379;SDS011;53160;55.014;73.156;2023-05-07T11:15:46;0.00;;;0.00;;
63379;SDS011;53160;55.014;73.156;2023-05-07T11:18:51;6.80;;;6.20;;
63379;SDS011;53160;55.014;73.156;2023-05-07T11:21:43;6.00;;;6.00;;
63379;SDS011;53160;55.014;73.156;2023-05-07T11:24:15;9.60;;;8.40;;
63379;SDS011;53160;55.014;73.156;2023-05-07T11:35:22;8.40;;;8.00;;
63379;SDS011;53160;55.014;73.156;2023-05-07T11:37:49;8.00;;;7.40;;
63379;SDS011;53160;55.014;73.156;2023-05-07T11:40:16;7.20;;;7.20;;
63379;SDS011;53160;55.014;73.156;2023-05-07T11:42:42;8.20;;;7.20;;
63379;SDS011;53160;55.014;73.156;2023-05-07T11:45:26;9.80;;;8.20;;
63379;SDS011;53160;55.014;73.156;2023-05-07T11:47:52;8.00;;;7.60;;
63379;SDS011;53160;55.014;73.156;2023-05-07T11:50:19;9.40;;;7.20;;
63379;SDS011;53160;55.014;73.156;2023-05-07T11:52:51;8.00;;;6.80;;
63379;SDS011;53160;55.014;73.156;2023-05-07T11:55:18;7.80;;;7.60;;
63379;SDS011;53160;55.014;73.156;2023-05-07T11:57:44;48.60;;;23.20;;
63379;SDS011;53160;55.014;73.156;2023-05-07T12:00:12;7.00;;;6.00;;
63379;SDS011;53160;55.014;73.156;2023-05-07T12:02:41;9.00;;;9.00;;
63379;SDS011;53160;55.014;73.156;2023-05-07T12:05:07;10.40;;;9.40;;
63379;SDS011;53160;55.014;73.156;2023-05-07T12:07:34;8.20;;;8.00;;
63379;SDS011;53160;55.014;73.156;2023-05-07T12:10:04;9.20;;;8.40;;
63379;SDS011;53160;55.014;73.156;2023-05-07T12:12:48;7.20;;;7.00;;
63379;SDS011;53160;55.014;73.156;2023-05-07T12:15:46;11.00;;;10.20;;
63379;SDS011;53160;55.014;73.156;2023-05-07T12:21:15;7.80;;;7.60;;
63379;SDS011;53160;55.014;73.156;2023-05-07T12:24:02;7.80;;;6.60;;
63379;SDS011;53160;55.014;73.156;2023-05-07T12:26:46;8.20;;;8.00;;
63379;SDS011;53160;55.014;73.156;2023-05-07T12:29:12;7.00;;;7.00;;
63379;SDS011;53160;55.014;73.156;2023-05-07T12:31:43;8.20;;;7.00;;
63379;SDS011;53160;55.014;73.156;2023-05-07T12:34:12;5.00;;;5.00;;
63379;SDS011;53160;55.014;73.156;2023-05-07T12:36:38;6.00;;;5.40;;
63379;SDS011;53160;55.014;73.156;2023-05-07T12:39:08;7.80;;;7.20;;
63379;SDS011;53160;55.014;73.156;2023-05-07T12:41:56;10.00;;;8.80;;
63379;SDS011;53160;55.014;73.156;2023-05-07T12:44:23;7.80;;;7.80;;
63379;SDS011;53160;55.014;73.156;2023-05-07T12:46:49;10.80;;;10.00;;
63379;SDS011;53160;55.014;73.156;2023-05-07T12:49:18;9.00;;;7.80;;
63379;SDS011;53160;55.014;73.156;2023-05-07T12:51:46;7.80;;;7.20;;
63379;SDS011;53160;55.014;73.156;2023-05-07T12:54:12;11.00;;;9.60;;
63379;SDS011;53160;55.014;73.156;2023-05-07T12:56:37;8.50;;;8.00;;
63379;SDS011;53160;55.014;73.156;2023-05-07T12:59:03;8.60;;;7.60;;
63379;SDS011;53160;55.014;73.156;2023-05-07T13:01:30;8.20;;;8.20;;
63379;SDS011;53160;55.014;73.156;2023-05-07T13:04:00;7.80;;;7.00;;
63379;SDS011;53160;55.014;73.156;2023-05-07T13:06:26;8.80;;;8.80;;
63379;SDS011;53160;55.014;73.156;2023-05-07T13:09:11;9.00;;;8.80;;
63379;SDS011;53160;55.014;73.156;2023-05-07T13:11:37;9.00;;;9.00;;
63379;SDS011;53160;55.014;73.156;2023-05-07T13:14:02;9.20;;;9.20;;
63379;SDS011;53160;55.014;73.156;2023-05-07T13:16:47;9.80;;;9.60;;
63379;SDS011;53160;55.014;73.156;2023-05-07T13:19:14;10.00;;;9.00;;
63379;SDS011;53160;55.014;73.156;2023-05-07T13:21:59;10.80;;;10.80;;
63379;SDS011;53160;55.014;73.156;2023-05-07T13:24:25;11.00;;;10.40;;
63379;SDS011;53160;55.014;73.156;2023-05-07T13:29:35;9.00;;;8.20;;
63379;SDS011;53160;55.014;73.156;2023-05-07T13:32:01;11.00;;;10.00;;
63379;SDS011;53160;55.014;73.156;2023-05-07T13:34:27;11.40;;;11.00;;
63379;SDS011;53160;55.014;73.156;2023-05-07T13:36:56;11.20;;;10.20;;
63379;SDS011;53160;55.014;73.156;2023-05-07T13:42:07;11.20;;;10.60;;
63379;SDS011;53160;55.014;73.156;2023-05-07T13:44:33;12.80;;;11.80;;
63379;SDS011;53160;55.014;73.156;2023-05-07T13:46:58;8.50;;;8.25;;
63379;SDS011;53160;55.014;73.156;2023-05-07T13:49:43;11.80;;;11.00;;
63379;SDS011;53160;55.014;73.156;2023-05-07T13:52:09;11.80;;;11.20;;
63379;SDS011;53160;55.014;73.156;2023-05-07T13:57:20;12.00;;;12.00;;
63379;SDS011;53160;55.014;73.156;2023-05-07T14:02:40;14.20;;;13.20;;
63379;SDS011;53160;55.014;73.156;2023-05-07T14:05:06;11.00;;;10.00;;
63379;SDS011;53160;55.014;73.156;2023-05-07T14:07:33;9.20;;;9.20;;
63379;SDS011;53160;55.014;73.156;2023-05-07T14:10:00;13.00;;;12.40;;
63379;SDS011;53160;55.014;73.156;2023-05-07T14:15:15;10.60;;;10.60;;
63379;SDS011;53160;55.014;73.156;2023-05-07T14:17:42;12.20;;;10.20;;
63379;SDS011;53160;55.014;73.156;2023-05-07T14:20:08;12.00;;;11.00;;
63379;SDS011;53160;55.014;73.156;2023-05-07T14:22:34;11.80;;;10.40;;
63379;SDS011;53160;55.014;73.156;2023-05-07T14:27:49;11.20;;;10.60;;
63379;SDS011;53160;55.014;73.156;2023-05-07T14:33:00;13.80;;;11.00;;
63379;SDS011;53160;55.014;73.156;2023-05-07T14:35:46;11.00;;;10.20;;
63379;SDS011;53160;55.014;73.156;2023-05-07T14:38:14;12.80;;;12.00;;
63379;SDS011;53160;55.014;73.156;2023-05-07T14:40:59;13.40;;;12.40;;
63379;SDS011;53160;55.014;73.156;2023-05-07T14:43:45;8.00;;;7.60;;
63379;SDS011;53160;55.014;73.156;2023-05-07T14:49:01;7.20;;;6.80;;
63379;SDS011;53160;55.014;73.156;2023-05-07T14:51:27;11.20;;;10.00;;
63379;SDS011;53160;55.014;73.156;2023-05-07T14:53:54;8.40;;;6.40;;
63379;SDS011;53160;55.014;73.156;2023-05-07T14:56:20;10.75;;;9.00;;
63379;SDS011;53160;55.014;73.156;2023-05-07T15:01:32;3.00;;;3.00;;
63379;SDS011;53160;55.014;73.156;2023-05-07T15:03:59;11.80;;;11.20;;
63379;SDS011;53160;55.014;73.156;2023-05-07T15:09:10;19.20;;;15.60;;
63379;SDS011;53160;55.014;73.156;2023-05-07T15:11:36;12.00;;;11.25;;
63379;SDS011;53160;55.014;73.156;2023-05-07T15:14:03;12.80;;;12.80;;
63379;SDS011;53160;55.014;73.156;2023-05-07T15:16:29;11.00;;;10.75;;
63379;SDS011;53160;55.014;73.156;2023-05-07T15:18:55;19.40;;;15.00;;
63379;SDS011;53160;55.014;73.156;2023-05-07T15:21:22;16.40;;;15.60;;
63379;SDS011;53160;55.014;73.156;2023-05-07T15:23:48;17.80;;;16.80;;
63379;SDS011;53160;55.014;73.156;2023-05-07T15:26:14;18.20;;;16.20;;
63379;SDS011;53160;55.014;73.156;2023-05-07T15:28:58;17.60;;;15.60;;
63379;SDS011;53160;55.014;73.156;2023-05-07T15:31:24;21.40;;;19.80;;
63379;SDS011;53160;55.014;73.156;2023-05-07T15:36:54;20.40;;;19.20;;
63379;SDS011;53160;55.014;73.156;2023-05-07T15:39:21;20.20;;;18.60;;
63379;SDS011;53160;55.014;73.156;2023-05-07T15:41:47;26.00;;;23.20;;
63379;SDS011;53160;55.014;73.156;2023-05-07T15:44:31;30.40;;;27.40;;
63379;SDS011;53160;55.014;73.156;2023-05-07T15:47:00;16.20;;;14.20;;
63379;SDS011;53160;55.014;73.156;2023-05-07T15:52:30;23.00;;;21.00;;
63379;SDS011;53160;55.014;73.156;2023-05-07T15:55:14;25.40;;;24.20;;
63379;SDS011;53160;55.014;73.156;2023-05-07T15:57:40;29.20;;;24.60;;
63379;SDS011;53160;55.014;73.156;2023-05-07T16:00:06;24.00;;;22.60;;
63379;SDS011;53160;55.014;73.156;2023-05-07T16:05:43;24.80;;;22.60;;
63379;SDS011;53160;55.014;73.156;2023-05-07T16:08:27;23.40;;;21.40;;
63379;SDS011;53160;55.014;73.156;2023-05-07T16:10:54;18.80;;;17.80;;
63379;SDS011;53160;55.014;73.156;2023-05-07T16:13:20;19.40;;;17.80;;
63379;SDS011;53160;55.014;73.156;2023-05-07T16:15:46;18.60;;;18.20;;
63379;SDS011;53160;55.014;73.156;2023-05-07T16:18:30;15.00;;;15.00;;
63379;SDS011;53160;55.014;73.156;2023-05-07T16:20:56;17.60;;;13.60;;
63379;SDS011;53160;55.014;73.156;2023-05-07T16:23:43;18.80;;;15.80;;
63379;SDS011;53160;55.014;73.156;2023-05-07T16:28:53;15.00;;;13.20;;
63379;SDS011;53160;55.014;73.156;2023-05-07T16:31:20;13.20;;;11.80;;
63379;SDS011;53160;55.014;73.156;2023-05-07T16:33:46;16.00;;;14.80;;
63379;SDS011;53160;55.014;73.156;2023-05-07T16:36:12;10.80;;;10.80;;
63379;SDS011;53160;55.014;73.156;2023-05-07T16:38:38;14.25;;;11.25;;
63379;SDS011;53160;55.014;73.156;2023-05-07T16:41:04;12.00;;;12.00;;
63379;SDS011;53160;55.014;73.156;2023-05-07T16:47:14;14.00;;;13.20;;
63379;SDS011;53160;55.014;73.156;2023-05-07T16:49:40;13.75;;;12.25;;
63379;SDS011;53160;55.014;73.156;2023-05-07T16:54:50;14.40;;;13.80;;
63379;SDS011;53160;55.014;73.156;2023-05-07T16:57:16;13.40;;;11.00;;
63379;SDS011;53160;55.014;73.156;2023-05-07T17:00:01;16.00;;;15.40;;
63379;SDS011;53160;55.014;73.156;2023-05-07T17:02:32;14.00;;;12.00;;
63379;SDS011;53160;55.014;73.156;2023-05-07T17:04:57;13.60;;;12.20;;
63379;SDS011;53160;55.014;73.156;2023-05-07T17:07:24;16.25;;;14.75;;
63379;SDS011;53160;55.014;73.156;2023-05-07T17:10:09;12.80;;;11.00;;
63379;SDS011;53160;55.014;73.156;2023-05-07T17:12:35;18.60;;;16.80;;
63379;SDS011;53160;55.014;73.156;2023-05-07T17:15:02;15.00;;;14.80;;
63379;SDS011;53160;55.014;73.156;2023-05-07T17:17:28;14.40;;;14.00;;
63379;SDS011;53160;55.014;73.156;2023-05-07T17:20:12;19.20;;;18.00;;
63379;SDS011;53160;55.014;73.156;2023-05-07T17:22:38;16.60;;;13.40;;